sensor_id;sensor_type;location;lat;lon;timestamp;P1;durP1;ratioP1;P2;durP2;ratioP2
69789;SDS011;57064;52.046;4.800;2023-03-01T00:01:49;42.90;;;18.50;;
69789;SDS011;57064;52.046;4.800;2023-03-01T00:04:15;42.90;;;17.55;;
69789;SDS011;57064;52.046;4.800;2023-03-01T00:06:42;39.40;;;18.42;;
69789;SDS011;57064;52.046;4.800;2023-03-01T00:09:11;43.75;;;18.75;;
69789;SDS011;57064;52.046;4.800;2023-03-01T00:11:37;44.20;;;19.42;;
69789;SDS011;57064;52.046;4.800;2023-03-01T00:14:04;43.50;;;18.65;;
69789;SDS011;57064;52.046;4.800;2023-03-01T00:16:32;45.15;;;19.15;;
69789;SDS011;57064;52.046;4.800;2023-03-01T00:19:00;50.80;;;20.35;;
69789;SDS011;57064;52.046;4.800;2023-03-01T00:21:26;43.10;;;17.70;;
69789;SDS011;57064;52.046;4.800;2023-03-01T00:23:53;47.90;;;18.98;;
69789;SDS011;57064;52.046;4.800;2023-03-01T00:26:20;45.20;;;19.67;;
69789;SDS011;57064;52.046;4.800;2023-03-01T00:28:47;51.47;;;20.27;;
69789;SDS011;57064;52.046;4.800;2023-03-01T00:31:14;50.55;;;19.45;;
69789;SDS011;57064;52.046;4.800;2023-03-01T00:33:45;55.60;;;20.25;;
69789;SDS011;57064;52.046;4.800;2023-03-01T00:36:12;46.50;;;20.05;;
69789;SDS011;57064;52.046;4.800;2023-03-01T00:38:43;49.60;;;19.45;;
69789;SDS011;57064;52.046;4.800;2023-03-01T00:41:11;51.33;;;21.05;;
69789;SDS011;57064;52.046;4.800;2023-03-01T00:43:39;51.95;;;20.75;;
69789;SDS011;57064;52.046;4.800;2023-03-01T00:46:09;52.22;;;21.25;;
69789;SDS011;57064;52.046;4.800;2023-03-01T00:48:40;53.08;;;20.75;;
69789;SDS011;57064;52.046;4.800;2023-03-01T00:51:07;56.53;;;22.77;;
69789;SDS011;57064;52.046;4.800;2023-03-01T00:53:34;60.67;;;23.25;;
69789;SDS011;57064;52.046;4.800;2023-03-01T00:56:00;52.05;;;20.88;;
69789;SDS011;57064;52.046;4.800;2023-03-01T00:58:30;50.97;;;20.40;;
69789;SDS011;57064;52.046;4.800;2023-03-01T01:00:56;58.75;;;22.60;;
69789;SDS011;57064;52.046;4.800;2023-03-01T01:03:23;56.85;;;21.23;;
69789;SDS011;57064;52.046;4.800;2023-03-01T01:05:52;65.57;;;23.73;;
69789;SDS011;57064;52.046;4.800;2023-03-01T01:08:19;49.97;;;21.42;;
69789;SDS011;57064;52.046;4.800;2023-03-01T01:10:46;54.60;;;23.33;;
69789;SDS011;57064;52.046;4.800;2023-03-01T01:13:12;54.20;;;21.10;;
69789;SDS011;57064;52.046;4.800;2023-03-01T01:15:39;60.83;;;22.00;;
69789;SDS011;57064;52.046;4.800;2023-03-01T01:18:05;52.78;;;21.25;;
69789;SDS011;57064;52.046;4.800;2023-03-01T01:20:32;66.00;;;22.85;;
69789;SDS011;57064;52.046;4.800;2023-03-01T01:23:00;58.50;;;22.38;;
69789;SDS011;57064;52.046;4.800;2023-03-01T01:25:26;65.22;;;27.17;;
69789;SDS011;57064;52.046;4.800;2023-03-01T01:27:52;64.28;;;23.00;;
69789;SDS011;57064;52.046;4.800;2023-03-01T01:30:18;56.03;;;23.35;;
69789;SDS011;57064;52.046;4.800;2023-03-01T01:32:44;61.40;;;22.35;;
69789;SDS011;57064;52.046;4.800;2023-03-01T01:35:10;57.78;;;23.23;;
69789;SDS011;57064;52.046;4.800;2023-03-01T01:37:36;67.75;;;23.05;;
69789;SDS011;57064;52.046;4.800;2023-03-01T01:40:02;70.35;;;24.55;;
69789;SDS011;57064;52.046;4.800;2023-03-01T01:42:29;68.50;;;25.20;;
69789;SDS011;57064;52.046;4.800;2023-03-01T01:47:53;66.63;;;25.27;;
69789;SDS011;57064;52.046;4.800;2023-03-01T01:50:21;70.18;;;25.08;;
69789;SDS011;57064;52.046;4.800;2023-03-01T01:52:48;72.93;;;26.90;;
69789;SDS011;57064;52.046;4.800;2023-03-01T01:55:20;65.20;;;24.65;;
69789;SDS011;57064;52.046;4.800;2023-03-01T01:57:53;71.18;;;26.67;;
69789;SDS011;57064;52.046;4.800;2023-03-01T02:00:23;121.57;;;28.70;;
69789;SDS011;57064;52.046;4.800;2023-03-01T02:02:53;225.13;;;35.88;;
69789;SDS011;57064;52.046;4.800;2023-03-01T02:05:35;221.23;;;36.88;;
69789;SDS011;57064;52.046;4.800;2023-03-01T02:08:14;193.88;;;31.50;;
69789;SDS011;57064;52.046;4.800;2023-03-01T02:10:43;208.35;;;33.83;;
69789;SDS011;57064;52.046;4.800;2023-03-01T02:13:11;163.30;;;29.23;;
69789;SDS011;57064;52.046;4.800;2023-03-01T02:15:38;121.00;;;26.42;;
69789;SDS011;57064;52.046;4.800;2023-03-01T02:18:05;187.18;;;30.10;;
69789;SDS011;57064;52.046;4.800;2023-03-01T02:23:22;216.07;;;32.40;;
69789;SDS011;57064;52.046;4.800;2023-03-01T02:26:07;166.00;;;30.75;;
69789;SDS011;57064;52.046;4.800;2023-03-01T02:28:37;218.25;;;33.95;;
69789;SDS011;57064;52.046;4.800;2023-03-01T02:31:05;265.77;;;36.90;;
69789;SDS011;57064;52.046;4.800;2023-03-01T02:33:52;171.00;;;29.40;;
69789;SDS011;57064;52.046;4.800;2023-03-01T02:36:20;123.40;;;27.38;;
69789;SDS011;57064;52.046;4.800;2023-03-01T02:38:50;97.90;;;25.60;;
69789;SDS011;57064;52.046;4.800;2023-03-01T02:41:20;116.22;;;28.40;;
69789;SDS011;57064;52.046;4.800;2023-03-01T02:43:48;95.65;;;28.77;;
69789;SDS011;57064;52.046;4.800;2023-03-01T02:46:15;69.60;;;23.05;;
69789;SDS011;57064;52.046;4.800;2023-03-01T02:48:44;56.92;;;22.92;;
69789;SDS011;57064;52.046;4.800;2023-03-01T02:51:17;66.40;;;23.73;;
69789;SDS011;57064;52.046;4.800;2023-03-01T02:53:59;75.13;;;25.02;;
69789;SDS011;57064;52.046;4.800;2023-03-01T02:56:36;61.30;;;22.60;;
69789;SDS011;57064;52.046;4.800;2023-03-01T02:59:02;70.68;;;24.98;;
69789;SDS011;57064;52.046;4.800;2023-03-01T03:01:29;113.22;;;27.92;;
69789;SDS011;57064;52.046;4.800;2023-03-01T03:06:28;63.90;;;23.33;;
69789;SDS011;57064;52.046;4.800;2023-03-01T03:08:54;78.68;;;22.30;;
69789;SDS011;57064;52.046;4.800;2023-03-01T03:11:20;64.45;;;21.48;;
69789;SDS011;57064;52.046;4.800;2023-03-01T03:13:46;59.03;;;21.52;;
69789;SDS011;57064;52.046;4.800;2023-03-01T03:16:13;69.70;;;24.55;;
69789;SDS011;57064;52.046;4.800;2023-03-01T03:18:39;62.28;;;23.65;;
69789;SDS011;57064;52.046;4.800;2023-03-01T03:21:09;68.55;;;23.73;;
69789;SDS011;57064;52.046;4.800;2023-03-01T03:23:36;57.03;;;22.20;;
69789;SDS011;57064;52.046;4.800;2023-03-01T03:26:03;72.90;;;24.83;;
69789;SDS011;57064;52.046;4.800;2023-03-01T03:28:30;66.50;;;23.27;;
69789;SDS011;57064;52.046;4.800;2023-03-01T03:30:57;71.43;;;24.27;;
69789;SDS011;57064;52.046;4.800;2023-03-01T03:33:28;61.95;;;23.27;;
69789;SDS011;57064;52.046;4.800;2023-03-01T03:35:57;55.97;;;22.40;;
69789;SDS011;57064;52.046;4.800;2023-03-01T03:38:24;66.40;;;23.63;;
69789;SDS011;57064;52.046;4.800;2023-03-01T03:40:51;72.28;;;24.23;;
69789;SDS011;57064;52.046;4.800;2023-03-01T03:43:28;71.80;;;26.17;;
69789;SDS011;57064;52.046;4.800;2023-03-01T03:45:55;71.18;;;26.35;;
69789;SDS011;57064;52.046;4.800;2023-03-01T03:48:24;89.40;;;27.02;;
69789;SDS011;57064;52.046;4.800;2023-03-01T03:50:52;67.05;;;25.17;;
69789;SDS011;57064;52.046;4.800;2023-03-01T03:53:20;69.13;;;24.45;;
69789;SDS011;57064;52.046;4.800;2023-03-01T03:55:48;69.78;;;26.38;;
69789;SDS011;57064;52.046;4.800;2023-03-01T03:58:14;75.55;;;27.17;;
69789;SDS011;57064;52.046;4.800;2023-03-01T04:00:44;73.03;;;25.88;;
69789;SDS011;57064;52.046;4.800;2023-03-01T04:03:12;73.35;;;26.90;;
69789;SDS011;57064;52.046;4.800;2023-03-01T04:05:40;72.80;;;24.88;;
69789;SDS011;57064;52.046;4.800;2023-03-01T04:08:06;64.40;;;23.80;;
69789;SDS011;57064;52.046;4.800;2023-03-01T04:10:38;60.70;;;21.98;;
69789;SDS011;57064;52.046;4.800;2023-03-01T04:13:06;69.60;;;23.90;;
69789;SDS011;57064;52.046;4.800;2023-03-01T04:15:35;76.65;;;24.95;;
69789;SDS011;57064;52.046;4.800;2023-03-01T04:18:01;63.55;;;22.98;;
69789;SDS011;57064;52.046;4.800;2023-03-01T04:20:29;76.32;;;23.08;;
69789;SDS011;57064;52.046;4.800;2023-03-01T04:23:15;90.47;;;25.38;;
69789;SDS011;57064;52.046;4.800;2023-03-01T04:25:51;63.90;;;21.95;;
69789;SDS011;57064;52.046;4.800;2023-03-01T04:28:29;104.18;;;25.42;;
69789;SDS011;57064;52.046;4.800;2023-03-01T04:31:08;79.63;;;22.48;;
69789;SDS011;57064;52.046;4.800;2023-03-01T04:33:42;69.78;;;23.20;;
69789;SDS011;57064;52.046;4.800;2023-03-01T04:36:13;62.58;;;21.77;;
69789;SDS011;57064;52.046;4.800;2023-03-01T04:38:40;94.38;;;25.35;;
69789;SDS011;57064;52.046;4.800;2023-03-01T04:41:07;62.22;;;22.30;;
69789;SDS011;57064;52.046;4.800;2023-03-01T04:43:35;72.30;;;23.60;;
69789;SDS011;57064;52.046;4.800;2023-03-01T04:46:06;76.50;;;24.20;;
69789;SDS011;57064;52.046;4.800;2023-03-01T04:48:34;92.63;;;22.63;;
69789;SDS011;57064;52.046;4.800;2023-03-01T04:51:02;76.75;;;20.65;;
69789;SDS011;57064;52.046;4.800;2023-03-01T04:53:28;145.05;;;28.00;;
69789;SDS011;57064;52.046;4.800;2023-03-01T04:55:55;114.30;;;26.13;;
69789;SDS011;57064;52.046;4.800;2023-03-01T04:58:25;121.97;;;23.83;;
69789;SDS011;57064;52.046;4.800;2023-03-01T05:00:52;89.85;;;21.77;;
69789;SDS011;57064;52.046;4.800;2023-03-01T05:03:19;85.38;;;22.50;;
69789;SDS011;57064;52.046;4.800;2023-03-01T05:05:46;120.45;;;25.20;;
69789;SDS011;57064;52.046;4.800;2023-03-01T05:08:13;165.68;;;28.48;;
69789;SDS011;57064;52.046;4.800;2023-03-01T05:10:44;212.70;;;29.77;;
69789;SDS011;57064;52.046;4.800;2023-03-01T05:13:13;170.27;;;28.40;;
69789;SDS011;57064;52.046;4.800;2023-03-01T05:15:45;103.32;;;26.30;;
69789;SDS011;57064;52.046;4.800;2023-03-01T05:18:25;73.28;;;24.38;;
69789;SDS011;57064;52.046;4.800;2023-03-01T05:20:53;77.93;;;24.45;;
69789;SDS011;57064;52.046;4.800;2023-03-01T05:23:23;61.78;;;22.83;;
69789;SDS011;57064;52.046;4.800;2023-03-01T05:25:50;63.95;;;23.10;;
69789;SDS011;57064;52.046;4.800;2023-03-01T05:28:17;72.97;;;26.58;;
69789;SDS011;57064;52.046;4.800;2023-03-01T05:30:44;70.53;;;25.70;;
69789;SDS011;57064;52.046;4.800;2023-03-01T05:33:11;73.32;;;25.52;;
69789;SDS011;57064;52.046;4.800;2023-03-01T05:35:43;79.00;;;27.40;;
69789;SDS011;57064;52.046;4.800;2023-03-01T05:38:11;74.68;;;26.73;;
69789;SDS011;57064;52.046;4.800;2023-03-01T05:40:40;84.55;;;27.85;;
69789;SDS011;57064;52.046;4.800;2023-03-01T05:43:08;83.20;;;28.10;;
69789;SDS011;57064;52.046;4.800;2023-03-01T05:45:36;84.55;;;26.63;;
69789;SDS011;57064;52.046;4.800;2023-03-01T05:48:03;82.00;;;27.98;;
69789;SDS011;57064;52.046;4.800;2023-03-01T05:50:32;74.13;;;28.05;;
69789;SDS011;57064;52.046;4.800;2023-03-01T05:53:01;77.53;;;26.92;;
69789;SDS011;57064;52.046;4.800;2023-03-01T05:55:27;81.30;;;27.25;;
69789;SDS011;57064;52.046;4.800;2023-03-01T05:57:55;67.45;;;25.63;;
69789;SDS011;57064;52.046;4.800;2023-03-01T06:00:23;75.80;;;27.00;;
69789;SDS011;57064;52.046;4.800;2023-03-01T06:02:49;73.97;;;27.05;;
69789;SDS011;57064;52.046;4.800;2023-03-01T06:05:16;81.20;;;31.00;;
69789;SDS011;57064;52.046;4.800;2023-03-01T06:07:43;77.20;;;28.63;;
69789;SDS011;57064;52.046;4.800;2023-03-01T06:10:10;83.95;;;29.15;;
69789;SDS011;57064;52.046;4.800;2023-03-01T06:12:37;81.55;;;28.90;;
69789;SDS011;57064;52.046;4.800;2023-03-01T06:15:05;94.65;;;30.30;;
69789;SDS011;57064;52.046;4.800;2023-03-01T06:17:35;84.57;;;30.13;;
69789;SDS011;57064;52.046;4.800;2023-03-01T06:20:06;75.32;;;28.27;;
69789;SDS011;57064;52.046;4.800;2023-03-01T06:22:36;78.97;;;29.50;;
69789;SDS011;57064;52.046;4.800;2023-03-01T06:25:03;78.05;;;29.20;;
69789;SDS011;57064;52.046;4.800;2023-03-01T06:27:29;77.38;;;29.00;;
69789;SDS011;57064;52.046;4.800;2023-03-01T06:29:55;73.25;;;25.67;;
69789;SDS011;57064;52.046;4.800;2023-03-01T06:32:21;84.00;;;28.08;;
69789;SDS011;57064;52.046;4.800;2023-03-01T06:34:47;79.30;;;27.85;;
69789;SDS011;57064;52.046;4.800;2023-03-01T06:37:14;80.57;;;28.52;;
69789;SDS011;57064;52.046;4.800;2023-03-01T06:39:40;78.50;;;27.67;;
69789;SDS011;57064;52.046;4.800;2023-03-01T06:42:07;72.03;;;25.50;;
69789;SDS011;57064;52.046;4.800;2023-03-01T06:44:35;73.95;;;27.98;;
69789;SDS011;57064;52.046;4.800;2023-03-01T06:47:01;78.60;;;27.75;;
69789;SDS011;57064;52.046;4.800;2023-03-01T06:49:28;82.10;;;30.08;;
69789;SDS011;57064;52.046;4.800;2023-03-01T06:51:55;72.95;;;26.05;;
69789;SDS011;57064;52.046;4.800;2023-03-01T06:54:21;76.70;;;26.92;;
69789;SDS011;57064;52.046;4.800;2023-03-01T06:56:48;81.53;;;26.70;;
69789;SDS011;57064;52.046;4.800;2023-03-01T06:59:15;81.38;;;28.27;;
69789;SDS011;57064;52.046;4.800;2023-03-01T07:01:41;82.93;;;26.88;;
69789;SDS011;57064;52.046;4.800;2023-03-01T07:04:08;75.70;;;26.60;;
69789;SDS011;57064;52.046;4.800;2023-03-01T07:06:35;84.57;;;28.52;;
69789;SDS011;57064;52.046;4.800;2023-03-01T07:09:01;71.00;;;27.00;;
69789;SDS011;57064;52.046;4.800;2023-03-01T07:11:27;80.28;;;28.60;;
69789;SDS011;57064;52.046;4.800;2023-03-01T07:13:53;75.32;;;26.58;;
69789;SDS011;57064;52.046;4.800;2023-03-01T07:16:20;80.93;;;28.27;;
69789;SDS011;57064;52.046;4.800;2023-03-01T07:18:46;82.18;;;28.88;;
69789;SDS011;57064;52.046;4.800;2023-03-01T07:21:13;75.38;;;28.00;;
69789;SDS011;57064;52.046;4.800;2023-03-01T07:23:40;86.20;;;30.40;;
69789;SDS011;57064;52.046;4.800;2023-03-01T07:26:06;79.25;;;28.40;;
69789;SDS011;57064;52.046;4.800;2023-03-01T07:28:32;83.50;;;31.08;;
69789;SDS011;57064;52.046;4.800;2023-03-01T07:31:04;93.38;;;29.85;;
69789;SDS011;57064;52.046;4.800;2023-03-01T07:33:31;78.53;;;29.95;;
69789;SDS011;57064;52.046;4.800;2023-03-01T07:35:58;90.18;;;31.20;;
69789;SDS011;57064;52.046;4.800;2023-03-01T07:38:25;93.07;;;31.55;;
69789;SDS011;57064;52.046;4.800;2023-03-01T07:40:52;87.75;;;31.30;;
69789;SDS011;57064;52.046;4.800;2023-03-01T07:43:18;102.47;;;33.55;;
69789;SDS011;57064;52.046;4.800;2023-03-01T07:45:45;97.13;;;33.25;;
69789;SDS011;57064;52.046;4.800;2023-03-01T07:48:11;99.80;;;34.08;;
69789;SDS011;57064;52.046;4.800;2023-03-01T07:50:37;98.15;;;33.20;;
69789;SDS011;57064;52.046;4.800;2023-03-01T07:53:03;102.13;;;35.42;;
69789;SDS011;57064;52.046;4.800;2023-03-01T07:55:29;104.90;;;35.65;;
69789;SDS011;57064;52.046;4.800;2023-03-01T07:57:55;93.03;;;34.08;;
69789;SDS011;57064;52.046;4.800;2023-03-01T08:00:22;100.13;;;33.90;;
69789;SDS011;57064;52.046;4.800;2023-03-01T08:02:48;99.53;;;33.08;;
69789;SDS011;57064;52.046;4.800;2023-03-01T08:05:14;90.15;;;31.90;;
69789;SDS011;57064;52.046;4.800;2023-03-01T08:07:40;94.57;;;31.85;;
69789;SDS011;57064;52.046;4.800;2023-03-01T08:10:06;94.43;;;32.70;;
69789;SDS011;57064;52.046;4.800;2023-03-01T08:12:33;95.93;;;32.90;;
69789;SDS011;57064;52.046;4.800;2023-03-01T08:14:59;94.50;;;34.00;;
69789;SDS011;57064;52.046;4.800;2023-03-01T08:17:25;91.80;;;33.10;;
69789;SDS011;57064;52.046;4.800;2023-03-01T08:19:51;89.03;;;29.25;;
69789;SDS011;57064;52.046;4.800;2023-03-01T08:22:17;93.07;;;28.48;;
69789;SDS011;57064;52.046;4.800;2023-03-01T08:24:43;98.05;;;31.98;;
69789;SDS011;57064;52.046;4.800;2023-03-01T08:27:09;85.90;;;30.63;;
69789;SDS011;57064;52.046;4.800;2023-03-01T08:29:37;86.05;;;29.85;;
69789;SDS011;57064;52.046;4.800;2023-03-01T08:32:03;83.63;;;29.00;;
69789;SDS011;57064;52.046;4.800;2023-03-01T08:34:29;78.55;;;28.23;;
69789;SDS011;57064;52.046;4.800;2023-03-01T08:36:56;78.60;;;26.65;;
69789;SDS011;57064;52.046;4.800;2023-03-01T08:39:22;77.35;;;28.38;;
69789;SDS011;57064;52.046;4.800;2023-03-01T08:41:48;71.55;;;28.42;;
69789;SDS011;57064;52.046;4.800;2023-03-01T08:44:15;69.63;;;26.77;;
69789;SDS011;57064;52.046;4.800;2023-03-01T08:46:45;68.65;;;25.70;;
69789;SDS011;57064;52.046;4.800;2023-03-01T08:49:16;65.15;;;25.92;;
69789;SDS011;57064;52.046;4.800;2023-03-01T08:51:43;64.82;;;23.73;;
69789;SDS011;57064;52.046;4.800;2023-03-01T08:54:11;63.05;;;25.00;;
69789;SDS011;57064;52.046;4.800;2023-03-01T08:56:39;62.10;;;22.02;;
69789;SDS011;57064;52.046;4.800;2023-03-01T08:59:06;58.08;;;24.30;;
69789;SDS011;57064;52.046;4.800;2023-03-01T09:01:32;58.70;;;23.40;;
69789;SDS011;57064;52.046;4.800;2023-03-01T09:03:58;50.20;;;19.42;;
69789;SDS011;57064;52.046;4.800;2023-03-01T09:06:26;49.20;;;17.30;;
69789;SDS011;57064;52.046;4.800;2023-03-01T09:08:54;46.03;;;17.80;;
69789;SDS011;57064;52.046;4.800;2023-03-01T09:11:21;38.45;;;17.17;;
69789;SDS011;57064;52.046;4.800;2023-03-01T09:13:47;33.08;;;15.05;;
69789;SDS011;57064;52.046;4.800;2023-03-01T09:16:15;36.47;;;15.80;;
69789;SDS011;57064;52.046;4.800;2023-03-01T09:18:42;30.13;;;12.95;;
69789;SDS011;57064;52.046;4.800;2023-03-01T09:21:11;37.05;;;15.38;;
69789;SDS011;57064;52.046;4.800;2023-03-01T09:23:40;37.83;;;16.52;;
69789;SDS011;57064;52.046;4.800;2023-03-01T09:26:14;37.15;;;16.20;;
69789;SDS011;57064;52.046;4.800;2023-03-01T09:28:44;32.97;;;16.00;;
69789;SDS011;57064;52.046;4.800;2023-03-01T09:31:10;29.55;;;14.50;;
69789;SDS011;57064;52.046;4.800;2023-03-01T09:33:37;35.65;;;14.80;;
69789;SDS011;57064;52.046;4.800;2023-03-01T09:36:05;30.92;;;14.98;;
69789;SDS011;57064;52.046;4.800;2023-03-01T09:38:35;22.75;;;11.93;;
69789;SDS011;57064;52.046;4.800;2023-03-01T09:41:01;23.77;;;11.38;;
69789;SDS011;57064;52.046;4.800;2023-03-01T09:43:44;17.67;;;9.25;;
69789;SDS011;57064;52.046;4.800;2023-03-01T09:46:23;18.85;;;10.23;;
69789;SDS011;57064;52.046;4.800;2023-03-01T09:48:57;22.27;;;9.07;;
69789;SDS011;57064;52.046;4.800;2023-03-01T09:51:33;17.27;;;8.77;;
69789;SDS011;57064;52.046;4.800;2023-03-01T09:54:04;16.98;;;7.47;;
69789;SDS011;57064;52.046;4.800;2023-03-01T09:56:40;16.48;;;8.65;;
69789;SDS011;57064;52.046;4.800;2023-03-01T10:04:50;13.20;;;6.88;;
69789;SDS011;57064;52.046;4.800;2023-03-01T10:09:54;12.23;;;7.00;;
69789;SDS011;57064;52.046;4.800;2023-03-01T10:12:21;13.20;;;7.65;;
69789;SDS011;57064;52.046;4.800;2023-03-01T10:14:55;15.95;;;7.55;;
69789;SDS011;57064;52.046;4.800;2023-03-01T10:20:26;12.43;;;6.72;;
69789;SDS011;57064;52.046;4.800;2023-03-01T10:22:51;14.18;;;7.70;;
69789;SDS011;57064;52.046;4.800;2023-03-01T10:30:54;10.27;;;6.75;;
69789;SDS011;57064;52.046;4.800;2023-03-01T10:33:24;11.23;;;6.15;;
69789;SDS011;57064;52.046;4.800;2023-03-01T10:35:52;11.18;;;5.85;;
69789;SDS011;57064;52.046;4.800;2023-03-01T10:38:18;12.05;;;6.80;;
69789;SDS011;57064;52.046;4.800;2023-03-01T10:40:53;14.13;;;6.68;;
69789;SDS011;57064;52.046;4.800;2023-03-01T10:43:19;11.07;;;6.80;;
69789;SDS011;57064;52.046;4.800;2023-03-01T10:45:46;10.75;;;4.95;;
69789;SDS011;57064;52.046;4.800;2023-03-01T10:56:10;14.55;;;6.15;;
69789;SDS011;57064;52.046;4.800;2023-03-01T10:58:57;9.63;;;5.97;;
69789;SDS011;57064;52.046;4.800;2023-03-01T11:01:29;10.25;;;5.65;;
69789;SDS011;57064;52.046;4.800;2023-03-01T11:06:35;9.88;;;4.90;;
69789;SDS011;57064;52.046;4.800;2023-03-01T11:11:42;7.65;;;4.70;;
69789;SDS011;57064;52.046;4.800;2023-03-01T11:16:39;7.47;;;4.22;;
69789;SDS011;57064;52.046;4.800;2023-03-01T11:21:37;9.38;;;4.70;;
69789;SDS011;57064;52.046;4.800;2023-03-01T11:24:19;7.10;;;3.97;;
69789;SDS011;57064;52.046;4.800;2023-03-01T11:30:05;9.65;;;4.63;;
69789;SDS011;57064;52.046;4.800;2023-03-01T11:32:54;4.50;;;2.58;;
69789;SDS011;57064;52.046;4.800;2023-03-01T11:35:47;6.70;;;3.63;;
69789;SDS011;57064;52.046;4.800;2023-03-01T11:38:36;8.52;;;3.35;;
69789;SDS011;57064;52.046;4.800;2023-03-01T11:41:06;6.30;;;3.80;;
69789;SDS011;57064;52.046;4.800;2023-03-01T11:43:55;6.15;;;3.47;;
69789;SDS011;57064;52.046;4.800;2023-03-01T12:21:51;6.30;;;3.70;;
69789;SDS011;57064;52.046;4.800;2023-03-01T12:25:08;8.93;;;4.43;;
69789;SDS011;57064;52.046;4.800;2023-03-01T12:30:47;7.80;;;3.28;;
69789;SDS011;57064;52.046;4.800;2023-03-01T12:38:41;7.32;;;4.07;;
69789;SDS011;57064;52.046;4.800;2023-03-01T12:47:07;7.93;;;3.83;;
69789;SDS011;57064;52.046;4.800;2023-03-01T12:49:41;5.85;;;3.42;;
69789;SDS011;57064;52.046;4.800;2023-03-01T13:06:49;7.43;;;3.97;;
69789;SDS011;57064;52.046;4.800;2023-03-01T13:12:41;7.40;;;2.90;;
69789;SDS011;57064;52.046;4.800;2023-03-01T13:17:48;6.63;;;3.58;;
69789;SDS011;57064;52.046;4.800;2023-03-01T13:20:15;6.38;;;3.72;;
69789;SDS011;57064;52.046;4.800;2023-03-01T13:22:45;6.63;;;3.92;;
69789;SDS011;57064;52.046;4.800;2023-03-01T13:25:21;8.70;;;5.43;;
69789;SDS011;57064;52.046;4.800;2023-03-01T13:27:47;7.68;;;3.72;;
69789;SDS011;57064;52.046;4.800;2023-03-01T13:35:43;5.85;;;3.90;;
69789;SDS011;57064;52.046;4.800;2023-03-01T13:41:01;7.70;;;4.10;;
69789;SDS011;57064;52.046;4.800;2023-03-01T13:43:30;6.57;;;3.63;;
69789;SDS011;57064;52.046;4.800;2023-03-01T13:45:58;5.63;;;3.47;;
69789;SDS011;57064;52.046;4.800;2023-03-01T13:48:28;7.57;;;3.58;;
69789;SDS011;57064;52.046;4.800;2023-03-01T13:51:03;7.15;;;4.22;;
69789;SDS011;57064;52.046;4.800;2023-03-01T13:53:33;7.57;;;3.45;;
69789;SDS011;57064;52.046;4.800;2023-03-01T13:56:02;6.32;;;3.83;;
69789;SDS011;57064;52.046;4.800;2023-03-01T13:59:02;5.90;;;3.60;;
69789;SDS011;57064;52.046;4.800;2023-03-01T14:01:40;7.18;;;3.78;;
69789;SDS011;57064;52.046;4.800;2023-03-01T14:04:18;6.35;;;3.72;;
69789;SDS011;57064;52.046;4.800;2023-03-01T14:06:46;7.07;;;3.80;;
69789;SDS011;57064;52.046;4.800;2023-03-01T14:22:52;8.40;;;3.55;;
69789;SDS011;57064;52.046;4.800;2023-03-01T14:25:32;6.88;;;3.67;;
69789;SDS011;57064;52.046;4.800;2023-03-01T14:28:02;7.43;;;3.78;;
69789;SDS011;57064;52.046;4.800;2023-03-01T14:33:20;7.13;;;3.65;;
69789;SDS011;57064;52.046;4.800;2023-03-01T14:36:00;7.40;;;3.45;;
69789;SDS011;57064;52.046;4.800;2023-03-01T14:43:44;5.53;;;3.53;;
69789;SDS011;57064;52.046;4.800;2023-03-01T14:48:43;6.80;;;3.88;;
69789;SDS011;57064;52.046;4.800;2023-03-01T14:51:09;5.20;;;3.53;;
69789;SDS011;57064;52.046;4.800;2023-03-01T14:53:37;4.88;;;3.30;;
69789;SDS011;57064;52.046;4.800;2023-03-01T14:56:03;6.88;;;3.80;;
69789;SDS011;57064;52.046;4.800;2023-03-01T14:58:31;7.43;;;3.38;;
69789;SDS011;57064;52.046;4.800;2023-03-01T15:00:59;6.13;;;3.47;;
69789;SDS011;57064;52.046;4.800;2023-03-01T15:03:43;5.20;;;3.15;;
69789;SDS011;57064;52.046;4.800;2023-03-01T15:06:20;6.05;;;3.13;;
69789;SDS011;57064;52.046;4.800;2023-03-01T15:08:48;8.45;;;3.03;;
69789;SDS011;57064;52.046;4.800;2023-03-01T15:11:21;5.97;;;3.15;;
69789;SDS011;57064;52.046;4.800;2023-03-01T15:13:49;5.75;;;3.22;;
69789;SDS011;57064;52.046;4.800;2023-03-01T15:16:17;5.28;;;2.85;;
69789;SDS011;57064;52.046;4.800;2023-03-01T15:18:48;4.68;;;2.08;;
69789;SDS011;57064;52.046;4.800;2023-03-01T15:23:50;5.80;;;3.40;;
69789;SDS011;57064;52.046;4.800;2023-03-01T15:26:28;7.78;;;3.65;;
69789;SDS011;57064;52.046;4.800;2023-03-01T15:28:56;7.03;;;3.78;;
69789;SDS011;57064;52.046;4.800;2023-03-01T15:31:30;6.18;;;3.05;;
69789;SDS011;57064;52.046;4.800;2023-03-01T15:34:07;4.60;;;2.58;;
69789;SDS011;57064;52.046;4.800;2023-03-01T15:36:47;5.03;;;3.10;;
69789;SDS011;57064;52.046;4.800;2023-03-01T15:39:27;4.65;;;2.50;;
69789;SDS011;57064;52.046;4.800;2023-03-01T15:42:04;7.07;;;2.92;;
69789;SDS011;57064;52.046;4.800;2023-03-01T15:47:52;6.72;;;3.38;;
69789;SDS011;57064;52.046;4.800;2023-03-01T15:50:29;5.68;;;3.83;;
69789;SDS011;57064;52.046;4.800;2023-03-01T15:52:58;4.88;;;3.05;;
69789;SDS011;57064;52.046;4.800;2023-03-01T15:55:29;8.90;;;3.58;;
69789;SDS011;57064;52.046;4.800;2023-03-01T16:00:45;6.18;;;3.30;;
69789;SDS011;57064;52.046;4.800;2023-03-01T16:03:13;6.10;;;3.38;;
69789;SDS011;57064;52.046;4.800;2023-03-01T16:05:46;5.53;;;3.00;;
69789;SDS011;57064;52.046;4.800;2023-03-01T16:08:13;5.82;;;3.30;;
69789;SDS011;57064;52.046;4.800;2023-03-01T16:10:39;7.78;;;3.53;;
69789;SDS011;57064;52.046;4.800;2023-03-01T16:13:08;5.80;;;3.63;;
69789;SDS011;57064;52.046;4.800;2023-03-01T16:15:35;5.03;;;3.13;;
69789;SDS011;57064;52.046;4.800;2023-03-01T16:18:01;6.82;;;3.58;;
69789;SDS011;57064;52.046;4.800;2023-03-01T16:20:28;5.53;;;3.30;;
69789;SDS011;57064;52.046;4.800;2023-03-01T16:22:55;7.97;;;3.47;;
69789;SDS011;57064;52.046;4.800;2023-03-01T16:25:27;8.32;;;3.35;;
69789;SDS011;57064;52.046;4.800;2023-03-01T16:27:54;6.10;;;3.78;;
69789;SDS011;57064;52.046;4.800;2023-03-01T16:30:21;6.55;;;3.50;;
69789;SDS011;57064;52.046;4.800;2023-03-01T16:32:48;9.57;;;4.18;;
69789;SDS011;57064;52.046;4.800;2023-03-01T16:35:16;5.68;;;3.67;;
69789;SDS011;57064;52.046;4.800;2023-03-01T16:37:43;7.20;;;3.65;;
69789;SDS011;57064;52.046;4.800;2023-03-01T16:40:20;8.90;;;3.50;;
69789;SDS011;57064;52.046;4.800;2023-03-01T16:42:52;7.43;;;3.88;;
69789;SDS011;57064;52.046;4.800;2023-03-01T16:45:20;9.30;;;4.57;;
69789;SDS011;57064;52.046;4.800;2023-03-01T16:47:46;6.38;;;4.00;;
69789;SDS011;57064;52.046;4.800;2023-03-01T16:50:12;8.50;;;3.45;;
69789;SDS011;57064;52.046;4.800;2023-03-01T16:52:38;6.38;;;3.92;;
69789;SDS011;57064;52.046;4.800;2023-03-01T16:55:05;8.85;;;4.38;;
69789;SDS011;57064;52.046;4.800;2023-03-01T16:57:35;8.63;;;3.97;;
69789;SDS011;57064;52.046;4.800;2023-03-01T17:00:03;6.07;;;3.45;;
69789;SDS011;57064;52.046;4.800;2023-03-01T17:02:32;7.50;;;3.90;;
69789;SDS011;57064;52.046;4.800;2023-03-01T17:04:59;7.15;;;4.65;;
69789;SDS011;57064;52.046;4.800;2023-03-01T17:07:26;9.55;;;4.07;;
69789;SDS011;57064;52.046;4.800;2023-03-01T17:09:53;10.15;;;5.03;;
69789;SDS011;57064;52.046;4.800;2023-03-01T17:12:19;10.35;;;4.63;;
69789;SDS011;57064;52.046;4.800;2023-03-01T17:14:45;7.75;;;4.40;;
69789;SDS011;57064;52.046;4.800;2023-03-01T17:17:11;9.40;;;4.13;;
69789;SDS011;57064;52.046;4.800;2023-03-01T17:19:37;8.48;;;4.35;;